< < Back
Terminal Aerodrome Forecast


Current Version              Previous Versions:   1  2  3  4  5  6  7  8  9  

Terminal Aerodrome Forecast

974
FTUS42 KGSP 011121
TAFAND
TAF
KAND 011121Z 0112/0212 25003KT P6SM SKC
      TEMPO 0112/0113 5SM BR
     FM011400 26008KT P6SM FEW160
     FM011600 26009KT P6SM FEW060 SCT160
     FM011800 25013G22KT P6SM BKN090
      TEMPO 0118/0122 4SM TSRA BKN040CB
     FM020200 25005KT P6SM BKN060=



Latest METAR

612
SAUS70 KWBC 020500
MTRAND
METAR KAND 020456Z AUTO 27005KT 10SM FEW120 21/19 A3003 RMK AO2 SLP160
T02110194 403000200


USA.gov is the U.S. government's official web portal to all federal, state and local government web resources and services.